sensor_id;sensor_type;location;lat;lon;timestamp;P1;durP1;ratioP1;P2;durP2;ratioP2
25073;SDS011;13066;52.042;5.648;2022-10-04T00:00:55;16.52;;;7.60;;
25073;SDS011;13066;52.042;5.648;2022-10-04T00:03:29;14.93;;;7.60;;
25073;SDS011;13066;52.042;5.648;2022-10-04T00:06:03;25.05;;;8.35;;
25073;SDS011;13066;52.042;5.648;2022-10-04T00:08:35;15.23;;;7.57;;
25073;SDS011;13066;52.042;5.648;2022-10-04T00:11:13;14.50;;;7.85;;
25073;SDS011;13066;52.042;5.648;2022-10-04T00:13:45;21.25;;;7.78;;
25073;SDS011;13066;52.042;5.648;2022-10-04T00:16:18;14.80;;;7.13;;
25073;SDS011;13066;52.042;5.648;2022-10-04T00:18:58;23.85;;;8.25;;
25073;SDS011;13066;52.042;5.648;2022-10-04T00:24:36;18.27;;;8.60;;
25073;SDS011;13066;52.042;5.648;2022-10-04T00:27:25;19.30;;;8.25;;
25073;SDS011;13066;52.042;5.648;2022-10-04T00:30:14;20.27;;;8.05;;
25073;SDS011;13066;52.042;5.648;2022-10-04T00:32:58;19.73;;;8.88;;
25073;SDS011;13066;52.042;5.648;2022-10-04T00:38:16;16.38;;;9.13;;
25073;SDS011;13066;52.042;5.648;2022-10-04T00:40:56;17.77;;;9.75;;
25073;SDS011;13066;52.042;5.648;2022-10-04T00:43:31;20.77;;;10.15;;
25073;SDS011;13066;52.042;5.648;2022-10-04T00:48:34;20.27;;;9.05;;
25073;SDS011;13066;52.042;5.648;2022-10-04T00:51:17;25.95;;;10.05;;
25073;SDS011;13066;52.042;5.648;2022-10-04T00:53:53;20.13;;;10.02;;
25073;SDS011;13066;52.042;5.648;2022-10-04T00:56:31;25.20;;;9.32;;
25073;SDS011;13066;52.042;5.648;2022-10-04T00:59:11;22.67;;;9.63;;
25073;SDS011;13066;52.042;5.648;2022-10-04T01:01:48;22.17;;;9.25;;
25073;SDS011;13066;52.042;5.648;2022-10-04T01:04:26;21.30;;;8.37;;
25073;SDS011;13066;52.042;5.648;2022-10-04T01:07:00;22.50;;;8.82;;
25073;SDS011;13066;52.042;5.648;2022-10-04T01:09:30;18.75;;;8.38;;
25073;SDS011;13066;52.042;5.648;2022-10-04T01:12:06;21.92;;;8.57;;
25073;SDS011;13066;52.042;5.648;2022-10-04T01:14:43;14.98;;;8.32;;
25073;SDS011;13066;52.042;5.648;2022-10-04T01:17:17;15.65;;;8.73;;
25073;SDS011;13066;52.042;5.648;2022-10-04T01:19:49;19.25;;;8.85;;
25073;SDS011;13066;52.042;5.648;2022-10-04T01:22:30;19.85;;;9.25;;
25073;SDS011;13066;52.042;5.648;2022-10-04T01:25:04;15.23;;;7.75;;
25073;SDS011;13066;52.042;5.648;2022-10-04T01:27:37;20.75;;;9.05;;
25073;SDS011;13066;52.042;5.648;2022-10-04T01:30:09;13.77;;;7.70;;
25073;SDS011;13066;52.042;5.648;2022-10-04T01:32:39;18.45;;;8.25;;
25073;SDS011;13066;52.042;5.648;2022-10-04T01:35:10;23.52;;;8.13;;
25073;SDS011;13066;52.042;5.648;2022-10-04T01:37:41;16.55;;;8.98;;
25073;SDS011;13066;52.042;5.648;2022-10-04T01:40:09;17.73;;;7.93;;
25073;SDS011;13066;52.042;5.648;2022-10-04T01:42:39;13.23;;;7.85;;
25073;SDS011;13066;52.042;5.648;2022-10-04T01:45:12;15.10;;;8.65;;
25073;SDS011;13066;52.042;5.648;2022-10-04T01:47:47;24.85;;;9.00;;
25073;SDS011;13066;52.042;5.648;2022-10-04T01:50:21;16.85;;;8.10;;
25073;SDS011;13066;52.042;5.648;2022-10-04T01:55:27;22.42;;;8.73;;
25073;SDS011;13066;52.042;5.648;2022-10-04T01:58:00;18.58;;;8.65;;
25073;SDS011;13066;52.042;5.648;2022-10-04T02:00:33;17.08;;;9.18;;
25073;SDS011;13066;52.042;5.648;2022-10-04T02:03:03;24.17;;;9.23;;
25073;SDS011;13066;52.042;5.648;2022-10-04T02:05:38;22.60;;;9.27;;
25073;SDS011;13066;52.042;5.648;2022-10-04T02:08:21;19.90;;;9.18;;
25073;SDS011;13066;52.042;5.648;2022-10-04T02:10:51;15.27;;;8.57;;
25073;SDS011;13066;52.042;5.648;2022-10-04T02:13:22;26.50;;;9.23;;
25073;SDS011;13066;52.042;5.648;2022-10-04T02:15:53;17.65;;;8.98;;
25073;SDS011;13066;52.042;5.648;2022-10-04T02:18:22;19.60;;;9.18;;
25073;SDS011;13066;52.042;5.648;2022-10-04T02:20:51;20.00;;;8.73;;
25073;SDS011;13066;52.042;5.648;2022-10-04T02:23:21;18.45;;;9.25;;
25073;SDS011;13066;52.042;5.648;2022-10-04T02:25:50;20.23;;;8.77;;
25073;SDS011;13066;52.042;5.648;2022-10-04T02:28:18;21.45;;;8.68;;
25073;SDS011;13066;52.042;5.648;2022-10-04T02:30:47;24.65;;;9.65;;
25073;SDS011;13066;52.042;5.648;2022-10-04T02:33:31;21.02;;;9.43;;
25073;SDS011;13066;52.042;5.648;2022-10-04T02:36:00;14.77;;;9.65;;
25073;SDS011;13066;52.042;5.648;2022-10-04T02:38:32;21.95;;;10.00;;
25073;SDS011;13066;52.042;5.648;2022-10-04T02:41:03;21.10;;;10.18;;
25073;SDS011;13066;52.042;5.648;2022-10-04T02:43:38;17.90;;;10.07;;
25073;SDS011;13066;52.042;5.648;2022-10-04T02:46:12;16.73;;;8.68;;
25073;SDS011;13066;52.042;5.648;2022-10-04T02:48:44;17.02;;;8.93;;
25073;SDS011;13066;52.042;5.648;2022-10-04T02:51:16;15.73;;;8.95;;
25073;SDS011;13066;52.042;5.648;2022-10-04T02:53:54;23.30;;;9.50;;
25073;SDS011;13066;52.042;5.648;2022-10-04T02:56:29;20.75;;;10.07;;
25073;SDS011;13066;52.042;5.648;2022-10-04T02:58:59;23.73;;;9.75;;
25073;SDS011;13066;52.042;5.648;2022-10-04T03:01:35;16.30;;;9.90;;
25073;SDS011;13066;52.042;5.648;2022-10-04T03:04:10;22.17;;;9.77;;
25073;SDS011;13066;52.042;5.648;2022-10-04T03:09:24;18.13;;;9.45;;
25073;SDS011;13066;52.042;5.648;2022-10-04T03:11:55;18.73;;;9.77;;
25073;SDS011;13066;52.042;5.648;2022-10-04T03:14:24;22.45;;;10.43;;
25073;SDS011;13066;52.042;5.648;2022-10-04T03:16:55;17.98;;;10.05;;
25073;SDS011;13066;52.042;5.648;2022-10-04T03:19:26;20.48;;;9.13;;
25073;SDS011;13066;52.042;5.648;2022-10-04T03:21:57;18.73;;;9.45;;
25073;SDS011;13066;52.042;5.648;2022-10-04T03:24:30;24.60;;;9.43;;
25073;SDS011;13066;52.042;5.648;2022-10-04T03:27:01;21.95;;;10.52;;
25073;SDS011;13066;52.042;5.648;2022-10-04T03:29:32;22.45;;;10.73;;
25073;SDS011;13066;52.042;5.648;2022-10-04T03:32:01;22.30;;;10.88;;
25073;SDS011;13066;52.042;5.648;2022-10-04T03:34:32;18.15;;;9.65;;
25073;SDS011;13066;52.042;5.648;2022-10-04T03:37:04;18.98;;;11.85;;
25073;SDS011;13066;52.042;5.648;2022-10-04T03:39:36;23.17;;;10.05;;
25073;SDS011;13066;52.042;5.648;2022-10-04T03:42:08;23.42;;;10.10;;
25073;SDS011;13066;52.042;5.648;2022-10-04T03:44:38;16.38;;;10.73;;
25073;SDS011;13066;52.042;5.648;2022-10-04T03:47:07;21.30;;;11.18;;
25073;SDS011;13066;52.042;5.648;2022-10-04T03:49:37;21.23;;;11.15;;
25073;SDS011;13066;52.042;5.648;2022-10-04T03:52:07;19.23;;;11.32;;
25073;SDS011;13066;52.042;5.648;2022-10-04T03:54:45;14.95;;;10.20;;
25073;SDS011;13066;52.042;5.648;2022-10-04T03:57:14;25.42;;;11.30;;
25073;SDS011;13066;52.042;5.648;2022-10-04T03:59:42;27.08;;;11.18;;
25073;SDS011;13066;52.042;5.648;2022-10-04T04:02:11;24.17;;;10.85;;
25073;SDS011;13066;52.042;5.648;2022-10-04T04:04:48;24.73;;;10.43;;
25073;SDS011;13066;52.042;5.648;2022-10-04T04:07:23;21.55;;;11.32;;
25073;SDS011;13066;52.042;5.648;2022-10-04T04:09:58;23.23;;;10.77;;
25073;SDS011;13066;52.042;5.648;2022-10-04T04:12:33;22.77;;;10.35;;
25073;SDS011;13066;52.042;5.648;2022-10-04T04:15:05;18.63;;;10.77;;
25073;SDS011;13066;52.042;5.648;2022-10-04T04:17:37;26.67;;;10.60;;
25073;SDS011;13066;52.042;5.648;2022-10-04T04:20:17;22.80;;;10.82;;
25073;SDS011;13066;52.042;5.648;2022-10-04T04:22:57;14.40;;;10.15;;
25073;SDS011;13066;52.042;5.648;2022-10-04T04:25:32;18.27;;;10.48;;
25073;SDS011;13066;52.042;5.648;2022-10-04T04:28:16;16.03;;;10.63;;
25073;SDS011;13066;52.042;5.648;2022-10-04T04:30:52;18.63;;;10.75;;
25073;SDS011;13066;52.042;5.648;2022-10-04T04:33:25;16.60;;;10.35;;
25073;SDS011;13066;52.042;5.648;2022-10-04T04:36:02;18.33;;;10.30;;
25073;SDS011;13066;52.042;5.648;2022-10-04T04:38:31;22.93;;;10.63;;
25073;SDS011;13066;52.042;5.648;2022-10-04T04:41:07;20.92;;;10.10;;
25073;SDS011;13066;52.042;5.648;2022-10-04T04:43:41;18.85;;;10.55;;
25073;SDS011;13066;52.042;5.648;2022-10-04T04:46:10;17.13;;;10.32;;
25073;SDS011;13066;52.042;5.648;2022-10-04T04:48:54;16.23;;;10.88;;
25073;SDS011;13066;52.042;5.648;2022-10-04T04:51:27;21.13;;;10.50;;
25073;SDS011;13066;52.042;5.648;2022-10-04T04:53:57;22.38;;;10.90;;
25073;SDS011;13066;52.042;5.648;2022-10-04T04:56:29;20.15;;;11.00;;
25073;SDS011;13066;52.042;5.648;2022-10-04T04:59:00;17.90;;;10.60;;
25073;SDS011;13066;52.042;5.648;2022-10-04T05:01:33;20.40;;;11.13;;
25073;SDS011;13066;52.042;5.648;2022-10-04T05:04:03;16.90;;;10.50;;
25073;SDS011;13066;52.042;5.648;2022-10-04T05:06:33;26.70;;;12.02;;
25073;SDS011;13066;52.042;5.648;2022-10-04T05:09:03;25.75;;;11.43;;
25073;SDS011;13066;52.042;5.648;2022-10-04T05:11:33;15.63;;;11.25;;
25073;SDS011;13066;52.042;5.648;2022-10-04T05:14:04;22.05;;;10.80;;
25073;SDS011;13066;52.042;5.648;2022-10-04T05:16:36;17.95;;;10.27;;
25073;SDS011;13066;52.042;5.648;2022-10-04T05:19:11;22.67;;;10.45;;
25073;SDS011;13066;52.042;5.648;2022-10-04T05:21:43;18.02;;;10.52;;
25073;SDS011;13066;52.042;5.648;2022-10-04T05:24:19;17.48;;;10.23;;
25073;SDS011;13066;52.042;5.648;2022-10-04T05:26:51;22.85;;;11.02;;
25073;SDS011;13066;52.042;5.648;2022-10-04T05:29:23;18.25;;;10.70;;
25073;SDS011;13066;52.042;5.648;2022-10-04T05:31:57;26.63;;;10.82;;
25073;SDS011;13066;52.042;5.648;2022-10-04T05:34:30;22.25;;;11.57;;
25073;SDS011;13066;52.042;5.648;2022-10-04T05:37:08;18.60;;;11.00;;
25073;SDS011;13066;52.042;5.648;2022-10-04T05:39:50;24.30;;;11.05;;
25073;SDS011;13066;52.042;5.648;2022-10-04T05:42:33;25.27;;;11.65;;
25073;SDS011;13066;52.042;5.648;2022-10-04T05:45:11;23.38;;;11.70;;
25073;SDS011;13066;52.042;5.648;2022-10-04T05:47:43;26.70;;;11.05;;
25073;SDS011;13066;52.042;5.648;2022-10-04T05:50:16;19.77;;;10.85;;
25073;SDS011;13066;52.042;5.648;2022-10-04T05:52:48;22.52;;;11.13;;
25073;SDS011;13066;52.042;5.648;2022-10-04T05:55:22;21.52;;;11.52;;
25073;SDS011;13066;52.042;5.648;2022-10-04T05:58:01;23.63;;;11.88;;
25073;SDS011;13066;52.042;5.648;2022-10-04T06:00:57;26.33;;;11.98;;
25073;SDS011;13066;52.042;5.648;2022-10-04T06:03:53;24.88;;;11.65;;
25073;SDS011;13066;52.042;5.648;2022-10-04T06:06:37;21.90;;;12.07;;
25073;SDS011;13066;52.042;5.648;2022-10-04T06:09:12;20.67;;;12.00;;
25073;SDS011;13066;52.042;5.648;2022-10-04T06:11:52;18.13;;;11.40;;
25073;SDS011;13066;52.042;5.648;2022-10-04T06:14:34;29.23;;;11.43;;
25073;SDS011;13066;52.042;5.648;2022-10-04T06:17:21;24.92;;;11.57;;
25073;SDS011;13066;52.042;5.648;2022-10-04T06:20:08;23.55;;;10.80;;
25073;SDS011;13066;52.042;5.648;2022-10-04T06:22:55;18.52;;;11.52;;
25073;SDS011;13066;52.042;5.648;2022-10-04T06:25:27;22.48;;;12.10;;
25073;SDS011;13066;52.042;5.648;2022-10-04T06:27:59;20.42;;;11.63;;
25073;SDS011;13066;52.042;5.648;2022-10-04T06:30:43;25.45;;;12.40;;
25073;SDS011;13066;52.042;5.648;2022-10-04T06:33:30;22.35;;;11.82;;
25073;SDS011;13066;52.042;5.648;2022-10-04T06:36:21;22.27;;;11.82;;
25073;SDS011;13066;52.042;5.648;2022-10-04T06:39:11;18.98;;;11.07;;
25073;SDS011;13066;52.042;5.648;2022-10-04T06:42:03;27.15;;;11.13;;
25073;SDS011;13066;52.042;5.648;2022-10-04T06:47:55;19.50;;;10.88;;
25073;SDS011;13066;52.042;5.648;2022-10-04T06:50:55;22.25;;;11.18;;
25073;SDS011;13066;52.042;5.648;2022-10-04T06:53:38;16.80;;;10.20;;
25073;SDS011;13066;52.042;5.648;2022-10-04T06:59:06;20.58;;;10.48;;
25073;SDS011;13066;52.042;5.648;2022-10-04T07:02:03;16.77;;;10.45;;
25073;SDS011;13066;52.042;5.648;2022-10-04T07:04:40;25.50;;;11.32;;
25073;SDS011;13066;52.042;5.648;2022-10-04T07:07:33;18.73;;;11.10;;
25073;SDS011;13066;52.042;5.648;2022-10-04T07:13:05;29.75;;;11.73;;
25073;SDS011;13066;52.042;5.648;2022-10-04T07:15:44;20.55;;;10.10;;
25073;SDS011;13066;52.042;5.648;2022-10-04T07:18:18;26.88;;;11.82;;
25073;SDS011;13066;52.042;5.648;2022-10-04T07:20:56;31.92;;;12.80;;
25073;SDS011;13066;52.042;5.648;2022-10-04T07:23:28;31.58;;;12.57;;
25073;SDS011;13066;52.042;5.648;2022-10-04T07:26:00;24.80;;;11.98;;
25073;SDS011;13066;52.042;5.648;2022-10-04T07:28:32;25.98;;;12.05;;
25073;SDS011;13066;52.042;5.648;2022-10-04T07:31:32;26.67;;;11.00;;
25073;SDS011;13066;52.042;5.648;2022-10-04T07:34:08;26.65;;;11.77;;
25073;SDS011;13066;52.042;5.648;2022-10-04T07:36:44;25.48;;;11.77;;
25073;SDS011;13066;52.042;5.648;2022-10-04T07:39:15;14.70;;;10.18;;
25073;SDS011;13066;52.042;5.648;2022-10-04T07:41:47;17.65;;;11.13;;
25073;SDS011;13066;52.042;5.648;2022-10-04T07:44:20;18.27;;;10.07;;
25073;SDS011;13066;52.042;5.648;2022-10-04T07:47:01;17.88;;;10.25;;
25073;SDS011;13066;52.042;5.648;2022-10-04T07:49:37;34.97;;;10.25;;
25073;SDS011;13066;52.042;5.648;2022-10-04T07:52:14;18.77;;;10.38;;
25073;SDS011;13066;52.042;5.648;2022-10-04T07:54:51;19.75;;;10.20;;
25073;SDS011;13066;52.042;5.648;2022-10-04T07:57:28;23.25;;;11.07;;
25073;SDS011;13066;52.042;5.648;2022-10-04T08:00:01;20.35;;;10.32;;
25073;SDS011;13066;52.042;5.648;2022-10-04T08:02:36;16.38;;;10.20;;
25073;SDS011;13066;52.042;5.648;2022-10-04T08:05:18;17.85;;;10.05;;
25073;SDS011;13066;52.042;5.648;2022-10-04T08:07:57;19.02;;;10.30;;
25073;SDS011;13066;52.042;5.648;2022-10-04T08:10:36;26.88;;;11.32;;
25073;SDS011;13066;52.042;5.648;2022-10-04T08:13:14;18.48;;;9.95;;
25073;SDS011;13066;52.042;5.648;2022-10-04T08:15:48;21.02;;;10.48;;
25073;SDS011;13066;52.042;5.648;2022-10-04T08:18:20;21.95;;;9.95;;
25073;SDS011;13066;52.042;5.648;2022-10-04T08:21:02;19.55;;;9.25;;
25073;SDS011;13066;52.042;5.648;2022-10-04T08:23:44;23.40;;;10.27;;
25073;SDS011;13066;52.042;5.648;2022-10-04T08:26:21;25.45;;;10.35;;
25073;SDS011;13066;52.042;5.648;2022-10-04T08:29:04;19.35;;;9.68;;
25073;SDS011;13066;52.042;5.648;2022-10-04T08:32:10;22.50;;;10.65;;
25073;SDS011;13066;52.042;5.648;2022-10-04T08:34:56;20.17;;;10.05;;
25073;SDS011;13066;52.042;5.648;2022-10-04T08:37:44;18.50;;;9.82;;
25073;SDS011;13066;52.042;5.648;2022-10-04T08:40:50;22.83;;;10.05;;
25073;SDS011;13066;52.042;5.648;2022-10-04T08:46:53;28.80;;;10.90;;
25073;SDS011;13066;52.042;5.648;2022-10-04T08:49:55;20.08;;;10.77;;
25073;SDS011;13066;52.042;5.648;2022-10-04T08:52:58;13.10;;;9.52;;
25073;SDS011;13066;52.042;5.648;2022-10-04T08:56:00;25.30;;;11.45;;
25073;SDS011;13066;52.042;5.648;2022-10-04T09:04:51;18.60;;;9.32;;
25073;SDS011;13066;52.042;5.648;2022-10-04T09:07:47;16.40;;;8.57;;
25073;SDS011;13066;52.042;5.648;2022-10-04T09:10:37;19.17;;;9.32;;
25073;SDS011;13066;52.042;5.648;2022-10-04T09:13:40;24.00;;;9.52;;
25073;SDS011;13066;52.042;5.648;2022-10-04T09:16:18;17.85;;;8.65;;
25073;SDS011;13066;52.042;5.648;2022-10-04T09:18:56;18.33;;;9.20;;
25073;SDS011;13066;52.042;5.648;2022-10-04T09:22:06;19.10;;;10.30;;
25073;SDS011;13066;52.042;5.648;2022-10-04T09:24:48;17.33;;;9.57;;
25073;SDS011;13066;52.042;5.648;2022-10-04T09:27:37;15.60;;;9.63;;
25073;SDS011;13066;52.042;5.648;2022-10-04T09:30:22;18.83;;;9.13;;
25073;SDS011;13066;52.042;5.648;2022-10-04T09:33:02;24.17;;;10.52;;
25073;SDS011;13066;52.042;5.648;2022-10-04T09:35:52;21.33;;;9.95;;
25073;SDS011;13066;52.042;5.648;2022-10-04T09:38:37;17.27;;;8.52;;
25073;SDS011;13066;52.042;5.648;2022-10-04T09:41:45;19.33;;;8.18;;
25073;SDS011;13066;52.042;5.648;2022-10-04T09:47:28;18.52;;;9.30;;
25073;SDS011;13066;52.042;5.648;2022-10-04T09:50:14;13.85;;;7.88;;
25073;SDS011;13066;52.042;5.648;2022-10-04T09:53:09;16.55;;;8.10;;
25073;SDS011;13066;52.042;5.648;2022-10-04T09:56:25;18.85;;;7.68;;
25073;SDS011;13066;52.042;5.648;2022-10-04T09:59:22;15.13;;;7.68;;
25073;SDS011;13066;52.042;5.648;2022-10-04T10:02:49;17.30;;;8.07;;
25073;SDS011;13066;52.042;5.648;2022-10-04T10:05:47;22.02;;;8.20;;
25073;SDS011;13066;52.042;5.648;2022-10-04T10:08:24;21.13;;;8.07;;
25073;SDS011;13066;52.042;5.648;2022-10-04T10:11:03;21.00;;;8.13;;
25073;SDS011;13066;52.042;5.648;2022-10-04T10:16:55;19.55;;;7.57;;
25073;SDS011;13066;52.042;5.648;2022-10-04T10:19:45;15.88;;;7.65;;
25073;SDS011;13066;52.042;5.648;2022-10-04T10:22:29;15.68;;;7.55;;
25073;SDS011;13066;52.042;5.648;2022-10-04T10:25:16;13.63;;;7.05;;
25073;SDS011;13066;52.042;5.648;2022-10-04T10:28:11;15.98;;;6.82;;
25073;SDS011;13066;52.042;5.648;2022-10-04T10:30:56;13.93;;;6.68;;
25073;SDS011;13066;52.042;5.648;2022-10-04T10:33:43;11.73;;;6.07;;
25073;SDS011;13066;52.042;5.648;2022-10-04T10:36:35;13.98;;;6.93;;
25073;SDS011;13066;52.042;5.648;2022-10-04T10:39:30;26.15;;;6.93;;
25073;SDS011;13066;52.042;5.648;2022-10-04T10:42:19;14.93;;;6.50;;
25073;SDS011;13066;52.042;5.648;2022-10-04T10:48:04;17.23;;;7.75;;
25073;SDS011;13066;52.042;5.648;2022-10-04T10:50:50;11.63;;;6.60;;
25073;SDS011;13066;52.042;5.648;2022-10-04T10:53:37;15.52;;;6.43;;
25073;SDS011;13066;52.042;5.648;2022-10-04T10:56:42;16.15;;;6.95;;
25073;SDS011;13066;52.042;5.648;2022-10-04T10:59:53;15.38;;;6.32;;
25073;SDS011;13066;52.042;5.648;2022-10-04T11:06:06;16.10;;;6.00;;
25073;SDS011;13066;52.042;5.648;2022-10-04T11:11:55;14.25;;;5.97;;
25073;SDS011;13066;52.042;5.648;2022-10-04T11:18:06;12.25;;;5.85;;
25073;SDS011;13066;52.042;5.648;2022-10-04T11:24:06;14.05;;;6.30;;
25073;SDS011;13066;52.042;5.648;2022-10-04T11:27:18;18.20;;;6.70;;
25073;SDS011;13066;52.042;5.648;2022-10-04T11:30:07;10.52;;;6.15;;
25073;SDS011;13066;52.042;5.648;2022-10-04T11:32:51;20.92;;;6.78;;
25073;SDS011;13066;52.042;5.648;2022-10-04T11:41:46;19.83;;;6.72;;
25073;SDS011;13066;52.042;5.648;2022-10-04T11:52:58;13.38;;;6.05;;
25073;SDS011;13066;52.042;5.648;2022-10-04T11:58:51;17.25;;;6.32;;
25073;SDS011;13066;52.042;5.648;2022-10-04T12:07:53;9.98;;;5.53;;
25073;SDS011;13066;52.042;5.648;2022-10-04T12:10:28;15.35;;;5.88;;
25073;SDS011;13066;52.042;5.648;2022-10-04T12:15:59;15.98;;;6.25;;
25073;SDS011;13066;52.042;5.648;2022-10-04T12:21:51;10.98;;;6.38;;
25073;SDS011;13066;52.042;5.648;2022-10-04T12:24:38;9.10;;;5.90;;
25073;SDS011;13066;52.042;5.648;2022-10-04T12:27:20;11.30;;;5.90;;
25073;SDS011;13066;52.042;5.648;2022-10-04T12:30:13;11.05;;;6.45;;
25073;SDS011;13066;52.042;5.648;2022-10-04T12:33:03;12.70;;;5.88;;
25073;SDS011;13066;52.042;5.648;2022-10-04T12:35:45;18.60;;;6.05;;
25073;SDS011;13066;52.042;5.648;2022-10-04T12:38:34;14.85;;;6.22;;
25073;SDS011;13066;52.042;5.648;2022-10-04T12:41:35;12.48;;;5.68;;
25073;SDS011;13066;52.042;5.648;2022-10-04T12:44:16;14.52;;;5.78;;
25073;SDS011;13066;52.042;5.648;2022-10-04T12:46:55;14.70;;;5.47;;
25073;SDS011;13066;52.042;5.648;2022-10-04T12:49:46;10.32;;;5.50;;
25073;SDS011;13066;52.042;5.648;2022-10-04T12:52:22;10.57;;;5.15;;
25073;SDS011;13066;52.042;5.648;2022-10-04T12:54:54;12.25;;;5.68;;
25073;SDS011;13066;52.042;5.648;2022-10-04T12:57:36;14.65;;;4.90;;
25073;SDS011;13066;52.042;5.648;2022-10-04T13:00:15;10.10;;;4.63;;
25073;SDS011;13066;52.042;5.648;2022-10-04T13:05:50;14.55;;;5.18;;
25073;SDS011;13066;52.042;5.648;2022-10-04T13:08:30;10.02;;;4.78;;
25073;SDS011;13066;52.042;5.648;2022-10-04T13:11:15;14.75;;;4.80;;
25073;SDS011;13066;52.042;5.648;2022-10-04T13:16:55;7.97;;;4.45;;
25073;SDS011;13066;52.042;5.648;2022-10-04T13:19:50;10.80;;;4.40;;
25073;SDS011;13066;52.042;5.648;2022-10-04T13:22:36;17.05;;;4.70;;
25073;SDS011;13066;52.042;5.648;2022-10-04T13:25:26;13.77;;;4.70;;
25073;SDS011;13066;52.042;5.648;2022-10-04T13:28:04;11.35;;;5.18;;
25073;SDS011;13066;52.042;5.648;2022-10-04T13:30:41;10.55;;;4.55;;
25073;SDS011;13066;52.042;5.648;2022-10-04T13:33:15;9.43;;;3.95;;
25073;SDS011;13066;52.042;5.648;2022-10-04T13:35:53;16.23;;;5.65;;
25073;SDS011;13066;52.042;5.648;2022-10-04T13:38:31;11.13;;;4.15;;
25073;SDS011;13066;52.042;5.648;2022-10-04T13:41:21;13.70;;;5.15;;
25073;SDS011;13066;52.042;5.648;2022-10-04T13:44:06;13.38;;;4.68;;
25073;SDS011;13066;52.042;5.648;2022-10-04T13:46:52;9.68;;;4.40;;
25073;SDS011;13066;52.042;5.648;2022-10-04T13:49:35;10.10;;;4.10;;
25073;SDS011;13066;52.042;5.648;2022-10-04T13:52:21;7.28;;;3.90;;
25073;SDS011;13066;52.042;5.648;2022-10-04T13:55:25;9.95;;;4.05;;
25073;SDS011;13066;52.042;5.648;2022-10-04T13:58:26;8.55;;;3.40;;
25073;SDS011;13066;52.042;5.648;2022-10-04T14:01:05;8.93;;;3.40;;
25073;SDS011;13066;52.042;5.648;2022-10-04T14:03:53;13.20;;;3.92;;
25073;SDS011;13066;52.042;5.648;2022-10-04T14:06:42;8.85;;;4.45;;
25073;SDS011;13066;52.042;5.648;2022-10-04T14:09:27;7.53;;;3.90;;
25073;SDS011;13066;52.042;5.648;2022-10-04T14:12:18;15.75;;;4.20;;
25073;SDS011;13066;52.042;5.648;2022-10-04T14:18:21;14.07;;;4.47;;
25073;SDS011;13066;52.042;5.648;2022-10-04T14:21:16;7.40;;;4.03;;
25073;SDS011;13066;52.042;5.648;2022-10-04T14:24:04;10.05;;;4.32;;
25073;SDS011;13066;52.042;5.648;2022-10-04T14:27:20;17.50;;;3.97;;
25073;SDS011;13066;52.042;5.648;2022-10-04T14:30:10;11.82;;;4.70;;
25073;SDS011;13066;52.042;5.648;2022-10-04T14:32:49;15.52;;;4.60;;
25073;SDS011;13066;52.042;5.648;2022-10-04T14:35:40;9.60;;;4.43;;
25073;SDS011;13066;52.042;5.648;2022-10-04T14:41:42;12.52;;;4.82;;
25073;SDS011;13066;52.042;5.648;2022-10-04T14:44:51;9.05;;;4.47;;
25073;SDS011;13066;52.042;5.648;2022-10-04T14:47:59;8.15;;;4.55;;
25073;SDS011;13066;52.042;5.648;2022-10-04T14:53:57;11.80;;;4.75;;
25073;SDS011;13066;52.042;5.648;2022-10-04T14:56:38;10.07;;;4.80;;
25073;SDS011;13066;52.042;5.648;2022-10-04T14:59:21;7.30;;;4.05;;
25073;SDS011;13066;52.042;5.648;2022-10-04T15:08:20;14.30;;;4.43;;
25073;SDS011;13066;52.042;5.648;2022-10-04T15:11:02;12.30;;;5.32;;
25073;SDS011;13066;52.042;5.648;2022-10-04T15:13:33;7.68;;;4.00;;
25073;SDS011;13066;52.042;5.648;2022-10-04T15:16:08;13.43;;;4.38;;
25073;SDS011;13066;52.042;5.648;2022-10-04T15:18:50;6.63;;;3.85;;
25073;SDS011;13066;52.042;5.648;2022-10-04T15:21:31;9.90;;;3.63;;
25073;SDS011;13066;52.042;5.648;2022-10-04T15:24:17;8.55;;;3.63;;
25073;SDS011;13066;52.042;5.648;2022-10-04T15:26:53;11.75;;;3.75;;
25073;SDS011;13066;52.042;5.648;2022-10-04T15:29:44;11.45;;;3.72;;
25073;SDS011;13066;52.042;5.648;2022-10-04T15:32:25;10.93;;;4.22;;
25073;SDS011;13066;52.042;5.648;2022-10-04T15:35:04;14.77;;;4.25;;
25073;SDS011;13066;52.042;5.648;2022-10-04T15:37:46;11.43;;;4.15;;
25073;SDS011;13066;52.042;5.648;2022-10-04T15:40:23;11.07;;;4.18;;
25073;SDS011;13066;52.042;5.648;2022-10-04T15:43:03;11.75;;;4.00;;
25073;SDS011;13066;52.042;5.648;2022-10-04T15:49:06;12.68;;;4.22;;
25073;SDS011;13066;52.042;5.648;2022-10-04T15:51:57;12.27;;;5.10;;
25073;SDS011;13066;52.042;5.648;2022-10-04T15:55:12;12.80;;;5.13;;
25073;SDS011;13066;52.042;5.648;2022-10-04T15:57:54;12.95;;;4.50;;
25073;SDS011;13066;52.042;5.648;2022-10-04T16:03:22;15.07;;;4.90;;
25073;SDS011;13066;52.042;5.648;2022-10-04T16:05:59;11.82;;;4.47;;
25073;SDS011;13066;52.042;5.648;2022-10-04T16:08:42;14.30;;;5.00;;
25073;SDS011;13066;52.042;5.648;2022-10-04T16:11:27;12.95;;;5.00;;
25073;SDS011;13066;52.042;5.648;2022-10-04T16:14:06;16.15;;;5.60;;
25073;SDS011;13066;52.042;5.648;2022-10-04T16:17:00;10.02;;;5.25;;
25073;SDS011;13066;52.042;5.648;2022-10-04T16:25:54;13.13;;;5.40;;
25073;SDS011;13066;52.042;5.648;2022-10-04T16:28:28;19.17;;;6.53;;
25073;SDS011;13066;52.042;5.648;2022-10-04T16:31:16;12.52;;;5.35;;
25073;SDS011;13066;52.042;5.648;2022-10-04T16:33:52;16.42;;;6.05;;
25073;SDS011;13066;52.042;5.648;2022-10-04T16:36:25;15.38;;;6.68;;
25073;SDS011;13066;52.042;5.648;2022-10-04T16:38:58;10.68;;;5.72;;
25073;SDS011;13066;52.042;5.648;2022-10-04T16:41:45;13.75;;;5.47;;
25073;SDS011;13066;52.042;5.648;2022-10-04T16:44:29;18.35;;;5.63;;
25073;SDS011;13066;52.042;5.648;2022-10-04T16:47:10;20.02;;;6.50;;
25073;SDS011;13066;52.042;5.648;2022-10-04T16:49:47;19.73;;;6.07;;
25073;SDS011;13066;52.042;5.648;2022-10-04T16:52:19;15.48;;;6.68;;
25073;SDS011;13066;52.042;5.648;2022-10-04T17:00:56;11.90;;;5.85;;
25073;SDS011;13066;52.042;5.648;2022-10-04T17:03:53;19.70;;;6.65;;
25073;SDS011;13066;52.042;5.648;2022-10-04T17:06:27;17.15;;;7.57;;
25073;SDS011;13066;52.042;5.648;2022-10-04T17:09:06;14.07;;;6.93;;
25073;SDS011;13066;52.042;5.648;2022-10-04T17:11:43;12.63;;;6.32;;
25073;SDS011;13066;52.042;5.648;2022-10-04T17:14:43;26.58;;;9.27;;
25073;SDS011;13066;52.042;5.648;2022-10-04T17:17:25;26.45;;;9.93;;
25073;SDS011;13066;52.042;5.648;2022-10-04T17:20:02;28.95;;;14.18;;
25073;SDS011;13066;52.042;5.648;2022-10-04T17:22:41;66.55;;;14.50;;
25073;SDS011;13066;52.042;5.648;2022-10-04T17:25:24;43.50;;;10.38;;
25073;SDS011;13066;52.042;5.648;2022-10-04T17:28:03;18.05;;;7.40;;
25073;SDS011;13066;52.042;5.648;2022-10-04T17:30:53;20.42;;;8.98;;
25073;SDS011;13066;52.042;5.648;2022-10-04T17:33:36;21.60;;;7.57;;
25073;SDS011;13066;52.042;5.648;2022-10-04T17:39:13;18.08;;;7.22;;
25073;SDS011;13066;52.042;5.648;2022-10-04T17:47:52;19.20;;;8.25;;
25073;SDS011;13066;52.042;5.648;2022-10-04T17:50:46;22.83;;;9.55;;
25073;SDS011;13066;52.042;5.648;2022-10-04T17:53:39;32.88;;;15.15;;
25073;SDS011;13066;52.042;5.648;2022-10-04T17:56:30;18.27;;;8.55;;
25073;SDS011;13066;52.042;5.648;2022-10-04T17:59:04;16.63;;;7.30;;
25073;SDS011;13066;52.042;5.648;2022-10-04T18:01:37;15.73;;;7.50;;
25073;SDS011;13066;52.042;5.648;2022-10-04T18:04:13;15.48;;;6.38;;